createdAt,value
2022-12-19T00:00:18.753Z,29.77
2022-12-19T00:03:21.929Z,27.47
2022-12-19T00:06:25.618Z,24.20
2022-12-19T00:09:29.191Z,20.77
2022-12-19T00:12:33.444Z,20.33
2022-12-19T00:15:37.065Z,28.07
2022-12-19T00:18:40.280Z,25.80
2022-12-19T00:21:43.013Z,26.77
2022-12-19T00:24:45.781Z,31.20
2022-12-19T00:27:49.870Z,28.73
2022-12-19T00:30:54.006Z,26.13
2022-12-19T00:33:58.885Z,26.70
2022-12-19T00:37:01.659Z,27.00
2022-12-19T00:40:05.379Z,30.77
2022-12-19T00:43:09.682Z,21.43
2022-12-19T00:46:14.895Z,22.37
2022-12-19T00:49:17.859Z,23.43
2022-12-19T00:52:21.309Z,26.67
2022-12-19T00:55:25.307Z,26.07
2022-12-19T00:58:33.224Z,23.73
2022-12-19T01:01:41.170Z,26.67
2022-12-19T01:04:44.651Z,29.47
2022-12-19T01:07:47.415Z,28.23
2022-12-19T01:10:51.417Z,26.07
2022-12-19T01:13:55.030Z,24.97
2022-12-19T01:16:58.012Z,22.03
2022-12-19T01:20:01.156Z,30.23
2022-12-19T01:23:04.240Z,25.60
2022-12-19T01:26:07.615Z,26.30
2022-12-19T01:29:12.012Z,29.10
2022-12-19T01:32:15.065Z,26.73
2022-12-19T01:35:21.779Z,30.10
2022-12-19T01:38:25.021Z,29.33
2022-12-19T01:41:28.181Z,31.93
2022-12-19T01:44:35.163Z,29.43
2022-12-19T01:47:46.532Z,32.10
2022-12-19T01:51:01.237Z,23.33
2022-12-19T01:54:10.969Z,25.27
2022-12-19T01:57:16.724Z,24.33
2022-12-19T02:00:21.641Z,24.73
2022-12-19T02:03:29.191Z,28.20
2022-12-19T02:06:35.996Z,28.47
2022-12-19T02:09:38.887Z,22.80
2022-12-19T02:12:47.519Z,28.67
2022-12-19T02:16:00.070Z,24.13
2022-12-19T02:19:29.298Z,25.67
2022-12-19T02:22:44.856Z,27.47
2022-12-19T02:26:04.604Z,29.40
2022-12-19T02:29:30.905Z,27.80
2022-12-19T02:32:43.388Z,25.70
2022-12-19T02:35:55.262Z,27.47
2022-12-19T02:39:01.932Z,27.53
2022-12-19T02:42:08.629Z,32.60
2022-12-19T02:45:19.206Z,28.60
2022-12-19T02:48:28.620Z,28.77
2022-12-19T02:51:31.341Z,33.83
2022-12-19T02:54:34.109Z,29.27
2022-12-19T02:57:47.661Z,30.27
2022-12-19T03:00:56.707Z,27.03
2022-12-19T03:04:12.581Z,33.57
2022-12-19T03:07:25.859Z,28.73
2022-12-19T03:10:37.590Z,25.73
2022-12-19T03:13:45.873Z,37.63
2022-12-19T03:16:48.927Z,29.50
2022-12-19T03:19:53.461Z,31.33
2022-12-19T03:22:56.593Z,26.10
2022-12-19T03:26:05.167Z,29.63
2022-12-19T03:29:13.694Z,32.63
2022-12-19T03:32:18.844Z,29.77
2022-12-19T03:35:26.126Z,28.23
2022-12-19T03:38:30.073Z,29.07
2022-12-19T03:41:51.883Z,30.87
2022-12-19T03:44:56.886Z,28.27
2022-12-19T03:48:04.739Z,30.47
2022-12-19T03:51:18.472Z,29.80
2022-12-19T03:54:25.630Z,26.17
2022-12-19T03:57:32.081Z,33.03
2022-12-19T04:00:37.677Z,32.40
2022-12-19T04:03:40.581Z,23.57
2022-12-19T04:06:47.351Z,31.13
2022-12-19T04:09:50.867Z,28.70
2022-12-19T04:12:57.341Z,29.97
2022-12-19T04:16:09.869Z,26.93
2022-12-19T04:19:19.778Z,30.83
2022-12-19T04:22:30.021Z,32.20
2022-12-19T04:25:39.775Z,28.30
2022-12-19T04:28:48.358Z,26.70
2022-12-19T04:31:51.768Z,29.23
2022-12-19T04:34:55.235Z,26.33
2022-12-19T04:37:59.962Z,32.80
2022-12-19T04:41:02.941Z,28.93
2022-12-19T04:44:06.163Z,23.83
2022-12-19T04:47:09.047Z,26.53
2022-12-19T04:50:11.920Z,24.27
2022-12-19T04:53:16.136Z,30.40
2022-12-19T04:56:18.876Z,23.40
2022-12-19T04:59:21.552Z,24.53
2022-12-19T05:02:25.202Z,32.10
2022-12-19T05:05:28.280Z,29.07
2022-12-19T05:08:32.615Z,25.60
2022-12-19T05:11:36.138Z,29.23
2022-12-19T05:14:39.384Z,29.23
2022-12-19T05:17:43.083Z,26.57
2022-12-19T05:20:49.798Z,26.13
2022-12-19T05:23:53.952Z,25.13
2022-12-19T05:26:56.633Z,27.93
2022-12-19T05:29:59.387Z,27.33
2022-12-19T05:33:02.265Z,30.33
2022-12-19T05:36:05.939Z,24.63
2022-12-19T05:39:10.038Z,32.57
2022-12-19T05:42:13.249Z,27.77
2022-12-19T05:45:16.184Z,29.57
2022-12-19T05:48:19.327Z,23.13
2022-12-19T05:51:22.287Z,24.67
2022-12-19T05:54:26.491Z,23.90
2022-12-19T05:57:29.377Z,23.03
2022-12-19T06:00:32.317Z,22.53
2022-12-19T06:03:35.135Z,26.60
2022-12-19T06:06:38.134Z,20.23
2022-12-19T06:09:42.429Z,23.00
2022-12-19T06:12:45.162Z,21.43
2022-12-19T06:15:47.948Z,24.57
2022-12-19T06:18:50.955Z,25.53
2022-12-19T06:21:53.685Z,24.00
2022-12-19T06:24:58.960Z,23.43
2022-12-19T06:28:01.795Z,23.57
2022-12-19T06:31:06.457Z,23.70
2022-12-19T06:34:32.996Z,24.63
2022-12-19T06:37:39.342Z,24.77
2022-12-19T06:41:14.267Z,22.43
2022-12-19T06:44:18.403Z,23.83
2022-12-19T06:47:22.807Z,21.53
2022-12-19T06:50:25.762Z,26.13
2022-12-19T06:53:28.631Z,23.07
2022-12-19T06:56:37.338Z,31.35
2022-12-19T06:59:41.014Z,36.27
2022-12-19T07:02:47.084Z,26.60
2022-12-19T07:05:50.011Z,25.17
2022-12-19T07:08:54.643Z,24.77
2022-12-19T07:11:59.320Z,21.10
2022-12-19T07:15:02.055Z,23.13
2022-12-19T07:18:07.985Z,27.90
2022-12-19T07:21:12.423Z,26.47
2022-12-19T07:24:16.016Z,24.07
2022-12-19T07:27:20.621Z,23.93
2022-12-19T07:30:23.578Z,24.17
2022-12-19T07:33:26.322Z,24.07
2022-12-19T07:36:29.038Z,23.37
2022-12-19T07:39:32.608Z,24.60
2022-12-19T07:42:36.839Z,24.43
2022-12-19T07:45:40.149Z,23.97
2022-12-19T07:48:42.993Z,21.40
2022-12-19T07:51:45.855Z,27.47
2022-12-19T07:54:49.148Z,22.17
2022-12-19T07:57:53.590Z,28.23
2022-12-19T08:00:57.134Z,23.83
2022-12-19T08:03:59.935Z,23.97
2022-12-19T08:07:03.292Z,21.57
2022-12-19T08:10:07.781Z,25.43
2022-12-19T08:13:12.545Z,23.10
2022-12-19T08:16:16.211Z,22.13
2022-12-19T08:19:23.406Z,23.73
2022-12-19T08:22:30.444Z,22.63
2022-12-19T08:25:33.367Z,22.63
2022-12-19T08:28:38.226Z,27.47
2022-12-19T08:31:41.060Z,25.47
2022-12-19T08:34:43.894Z,22.20
2022-12-19T08:37:46.641Z,20.17
2022-12-19T08:40:54.633Z,19.97
2022-12-19T08:43:58.768Z,23.40
2022-12-19T08:47:02.378Z,26.07
2022-12-19T08:50:06.315Z,20.93
2022-12-19T08:53:09.211Z,24.53
2022-12-19T08:56:14.512Z,22.90
2022-12-19T08:59:30.229Z,24.20
2022-12-19T09:02:34.330Z,25.77
2022-12-19T09:06:05.283Z,22.80
2022-12-19T09:09:00.711Z,20.97
2022-12-19T09:12:03.665Z,25.40
2022-12-19T09:15:08.673Z,27.13
2022-12-19T09:18:11.873Z,21.17
2022-12-19T09:21:15.421Z,20.53
2022-12-19T09:24:18.209Z,23.90
2022-12-19T09:27:21.798Z,23.83
2022-12-19T09:30:29.147Z,24.40
2022-12-19T09:33:42.962Z,21.53
2022-12-19T09:36:46.425Z,21.23
2022-12-19T09:39:50.081Z,19.10
2022-12-19T09:43:05.233Z,19.97
2022-12-19T09:46:17.156Z,23.10
2022-12-19T09:49:23.290Z,20.73
2022-12-19T09:52:33.031Z,28.00
2022-12-19T09:55:41.074Z,23.60
2022-12-19T09:58:48.258Z,21.53
2022-12-19T10:01:58.796Z,19.83
2022-12-19T10:05:41.542Z,21.10
2022-12-19T10:08:40.578Z,20.67
2022-12-19T10:12:44.271Z,19.43
2022-12-19T10:15:56.265Z,18.90
2022-12-19T10:19:08.144Z,17.03
2022-12-19T10:22:19.882Z,17.50
2022-12-19T10:25:37.337Z,16.73
2022-12-19T10:29:02.417Z,15.57
2022-12-19T10:32:19.512Z,20.47
2022-12-19T10:35:28.512Z,17.60
2022-12-19T10:38:38.918Z,17.53
2022-12-19T10:41:50.493Z,19.33
2022-12-19T10:44:55.286Z,20.90
2022-12-19T10:47:59.430Z,20.57
2022-12-19T10:51:06.938Z,16.13
2022-12-19T10:54:10.467Z,16.53
2022-12-19T10:57:23.309Z,19.07
2022-12-19T11:00:26.213Z,17.57
2022-12-19T11:03:29.237Z,17.00
2022-12-19T11:06:47.364Z,17.27
2022-12-19T11:10:05.348Z,14.67
2022-12-19T11:18:08.704Z,13.67
2022-12-19T11:21:12.817Z,14.37
2022-12-19T11:29:43.774Z,14.37
2022-12-19T11:29:46.779Z,19.47
2022-12-19T11:30:49.023Z,16.53
2022-12-19T11:31:55.664Z,15.53
2022-12-19T11:34:25.492Z,18.43
2022-12-19T11:37:38.235Z,17.37
2022-12-19T11:40:49.433Z,14.93
2022-12-19T11:43:58.897Z,17.03
2022-12-19T11:47:13.911Z,17.50
2022-12-19T11:50:20.053Z,22.20
2022-12-19T11:53:29.827Z,20.60
2022-12-19T11:56:36.213Z,17.17
2022-12-19T11:59:41.216Z,15.47
2022-12-19T12:03:03.135Z,20.40
2022-12-19T12:06:13.813Z,20.70
2022-12-19T12:13:41.868Z,23.10
2022-12-19T12:22:29.125Z,21.77
2022-12-19T12:28:57.070Z,18.40
2022-12-19T12:31:00.296Z,17.03
2022-12-19T12:31:38.740Z,15.13
2022-12-19T12:31:51.384Z,14.60
2022-12-19T12:31:52.736Z,16.10
2022-12-19T12:35:56.481Z,18.77
2022-12-19T12:38:22.066Z,17.87
2022-12-19T12:41:56.235Z,18.17
2022-12-19T12:45:00.616Z,23.90
2022-12-19T12:48:16.489Z,18.17
2022-12-19T12:51:19.596Z,22.07
2022-12-19T12:54:25.352Z,16.40
2022-12-19T12:57:36.740Z,19.80
2022-12-19T13:00:39.728Z,18.90
2022-12-19T13:03:52.378Z,16.77
2022-12-19T13:07:40.168Z,17.27
2022-12-19T13:10:54.827Z,17.50
2022-12-19T13:13:58.536Z,16.97
2022-12-19T13:17:02.686Z,18.07
2022-12-19T13:20:41.865Z,25.27
2022-12-19T13:23:47.699Z,16.97
2022-12-19T13:26:52.517Z,13.87
2022-12-19T13:30:03.680Z,17.60
2022-12-19T13:33:09.620Z,16.43
2022-12-19T13:39:51.353Z,16.27
2022-12-19T13:40:20.520Z,14.03
2022-12-19T13:43:47.562Z,17.67
2022-12-19T13:46:50.942Z,15.67
2022-12-19T13:49:54.907Z,14.13
2022-12-19T13:52:59.754Z,18.63
2022-12-19T13:56:05.221Z,20.13
2022-12-19T13:59:09.112Z,15.73
2022-12-19T14:02:21.535Z,13.43
2022-12-19T14:05:44.440Z,16.00
2022-12-19T14:09:46.296Z,17.53
2022-12-19T14:13:55.160Z,14.50
2022-12-19T14:15:59.755Z,14.47
2022-12-19T14:19:03.890Z,13.63
2022-12-19T14:22:25.818Z,14.83
2022-12-19T14:28:15.324Z,13.93
2022-12-19T14:29:05.181Z,12.47
2022-12-19T14:33:45.213Z,13.37
2022-12-19T14:36:09.880Z,10.63
2022-12-19T14:39:22.370Z,13.50
2022-12-19T14:43:57.176Z,10.67
2022-12-19T14:52:27.892Z,12.57
2022-12-19T14:54:13.316Z,16.20
2022-12-19T14:54:33.738Z,10.60
2022-12-19T14:56:59.069Z,13.57
2022-12-19T15:01:07.746Z,17.77
2022-12-19T15:04:48.981Z,17.73
2022-12-19T15:07:22.123Z,13.90
2022-12-19T15:11:07.819Z,11.20
2022-12-19T15:14:56.894Z,13.87
2022-12-19T15:17:22.537Z,17.53
2022-12-19T15:20:25.299Z,15.53
2022-12-19T15:23:30.056Z,18.90
2022-12-19T15:26:35.643Z,15.80
2022-12-19T15:29:38.881Z,12.90
2022-12-19T15:32:48.943Z,13.57
2022-12-19T15:35:51.680Z,11.43
2022-12-19T15:38:54.491Z,12.37
2022-12-19T15:42:00.778Z,9.23
2022-12-19T15:45:03.574Z,11.63
2022-12-19T15:48:10.493Z,9.50
2022-12-19T15:51:14.498Z,7.50
2022-12-19T15:57:43.869Z,6.50
2022-12-19T16:00:51.825Z,11.07
2022-12-19T16:03:57.854Z,8.57
2022-12-19T16:07:00.726Z,8.43
2022-12-19T16:10:03.715Z,9.77
2022-12-19T16:13:06.469Z,8.47
2022-12-19T16:16:15.764Z,9.80
2022-12-19T16:19:31.517Z,11.37
2022-12-19T16:22:34.770Z,11.53
2022-12-19T16:25:41.295Z,10.93
2022-12-19T16:28:44.048Z,8.77
2022-12-19T16:31:46.911Z,11.77
2022-12-19T16:34:51.794Z,10.60
2022-12-19T16:37:54.781Z,9.07
2022-12-19T16:40:58.261Z,10.27
2022-12-19T16:44:01.915Z,12.57
2022-12-19T16:47:04.781Z,7.50
2022-12-19T16:50:16.029Z,8.67
2022-12-19T16:53:19.162Z,11.17
2022-12-19T16:56:31.354Z,10.03
2022-12-19T16:59:36.740Z,9.30
2022-12-19T17:02:44.787Z,12.83
2022-12-19T17:05:48.924Z,11.50
2022-12-19T17:08:51.591Z,9.40
2022-12-19T17:11:58.055Z,13.53
2022-12-19T17:15:00.738Z,11.77
2022-12-19T17:18:10.834Z,10.73
2022-12-19T17:21:19.039Z,13.87
2022-12-19T17:24:21.673Z,15.67
2022-12-19T17:27:25.744Z,14.87
2022-12-19T17:30:28.415Z,10.27
2022-12-19T17:33:35.410Z,12.23
2022-12-19T17:36:39.471Z,10.80
2022-12-19T17:39:42.739Z,11.17
2022-12-19T17:42:45.537Z,13.10
2022-12-19T17:45:48.780Z,10.43
2022-12-19T17:48:53.711Z,12.93
2022-12-19T17:51:58.392Z,14.00
2022-12-19T17:55:01.081Z,14.37
2022-12-19T17:58:03.712Z,10.73
2022-12-19T18:01:06.707Z,12.63
2022-12-19T18:04:14.849Z,11.80
2022-12-19T18:07:20.189Z,12.03
2022-12-19T18:10:25.868Z,15.20
2022-12-19T18:13:30.295Z,12.93
2022-12-19T18:16:33.756Z,14.50
2022-12-19T18:19:36.931Z,11.80
2022-12-19T18:22:42.683Z,12.40
2022-12-19T18:25:45.705Z,11.90
2022-12-19T18:28:49.006Z,11.73
2022-12-19T18:31:52.406Z,10.07
2022-12-19T18:34:55.163Z,13.43
2022-12-19T18:38:01.528Z,10.77
2022-12-19T18:41:04.280Z,13.13
2022-12-19T18:44:06.934Z,9.47
2022-12-19T18:47:20.710Z,11.10
2022-12-19T18:50:26.295Z,11.80
2022-12-19T18:53:35.376Z,13.13
2022-12-19T18:56:38.674Z,11.80
2022-12-19T18:59:41.420Z,13.83
2022-12-19T19:02:49.190Z,13.43
2022-12-19T19:05:52.373Z,14.73
2022-12-19T19:08:58.441Z,17.80
2022-12-19T19:12:01.506Z,14.20
2022-12-19T19:15:04.147Z,13.77
2022-12-19T19:18:09.367Z,18.13
2022-12-19T19:21:14.374Z,16.20
2022-12-19T19:24:21.853Z,15.33
2022-12-19T19:27:24.959Z,16.13
2022-12-19T19:30:28.019Z,16.47
2022-12-19T19:33:34.243Z,14.17
2022-12-19T19:36:41.103Z,12.80
2022-12-19T19:39:45.804Z,17.40
2022-12-19T19:42:48.455Z,14.97
2022-12-19T19:45:51.885Z,14.60
2022-12-19T19:48:54.631Z,15.03
2022-12-19T19:52:02.444Z,16.40
2022-12-19T19:55:09.407Z,11.57
2022-12-19T19:58:12.095Z,13.10
2022-12-19T20:01:15.416Z,13.17
2022-12-19T20:04:18.501Z,17.50
2022-12-19T20:07:21.178Z,17.37
2022-12-19T20:10:25.368Z,15.17
2022-12-19T20:13:30.160Z,15.97
2022-12-19T20:16:33.517Z,16.03
2022-12-19T20:19:36.280Z,15.07
2022-12-19T20:22:38.960Z,12.83
2022-12-19T20:25:43.261Z,13.53
2022-12-19T20:28:49.335Z,14.40
2022-12-19T20:31:52.916Z,11.33
2022-12-19T20:34:55.579Z,12.00
2022-12-19T20:38:00.398Z,14.13
2022-12-19T20:41:05.048Z,12.07
2022-12-19T20:44:07.733Z,11.20
2022-12-19T20:47:10.846Z,18.13
2022-12-19T20:50:16.019Z,15.03
2022-12-19T20:53:18.917Z,13.80
2022-12-19T20:56:25.847Z,14.00
2022-12-19T20:59:28.542Z,16.70
2022-12-19T21:02:52.492Z,13.63
2022-12-19T21:05:54.391Z,11.87
2022-12-19T21:08:58.117Z,12.43
2022-12-19T21:12:02.152Z,12.03
2022-12-19T21:15:05.414Z,14.67
2022-12-19T21:18:12.367Z,14.67
2022-12-19T21:21:25.043Z,13.20
2022-12-19T21:24:34.596Z,13.67
2022-12-19T21:27:49.152Z,12.40
2022-12-19T21:31:01.887Z,12.80
2022-12-19T21:34:13.267Z,15.47
2022-12-19T21:37:25.347Z,13.73
2022-12-19T21:40:41.847Z,13.70
2022-12-19T21:43:55.715Z,14.20
2022-12-19T21:50:57.573Z,11.33
2022-12-19T21:54:13.547Z,15.67
2022-12-19T21:57:21.812Z,14.13
2022-12-19T22:00:30.321Z,14.27
2022-12-19T22:03:37.022Z,13.37
2022-12-19T22:06:43.095Z,12.53
2022-12-19T22:09:50.116Z,10.17
2022-12-19T22:12:55.801Z,8.70
2022-12-19T22:16:06.812Z,13.13
2022-12-19T22:19:18.115Z,12.27
2022-12-19T22:22:24.683Z,10.30
2022-12-19T22:25:30.386Z,11.33
2022-12-19T22:28:40.650Z,12.43
2022-12-19T22:31:50.785Z,11.47
2022-12-19T22:34:57.797Z,11.57
2022-12-19T22:38:06.786Z,11.93
2022-12-19T22:41:13.096Z,11.43
2022-12-19T22:44:22.083Z,13.23
2022-12-19T22:47:31.582Z,12.03
2022-12-19T22:50:39.638Z,12.20
2022-12-19T22:53:46.204Z,14.20
2022-12-19T22:56:53.989Z,12.37
2022-12-19T23:03:28.768Z,12.37
2022-12-19T23:06:45.008Z,13.70
2022-12-19T23:10:00.689Z,10.90
2022-12-19T23:13:21.108Z,12.97
2022-12-19T23:16:37.441Z,12.20
2022-12-19T23:19:46.673Z,12.90
2022-12-19T23:23:03.956Z,13.90
2022-12-19T23:26:15.902Z,13.43
2022-12-19T23:29:28.751Z,11.13
2022-12-19T23:32:37.184Z,11.47
2022-12-19T23:35:50.860Z,11.07
2022-12-19T23:39:10.664Z,11.30
2022-12-19T23:42:26.717Z,11.20
2022-12-19T23:45:49.846Z,13.10
2022-12-19T23:49:20.788Z,13.83
2022-12-19T23:52:34.351Z,11.83
2022-12-19T23:55:44.099Z,13.00
2022-12-19T23:58:52.628Z,13.90
